This is the latest recevied weather packets stored in our database for station/object KC1OEK-13. If no packets are shown the sender has not sent any weather packets the latest 10 day(s).
| Time | Temp. | Humidity | Pressure | Rain* | Wind** | Luminosity | Snow |
|---|---|---|---|---|---|---|---|
| 1788039435 | 24.44° C | 46% | 1023.8 hPa | 0 mm | - | 193 W/m² | - |
| 1788039130 | 24.44° C | 47% | 1024.1 hPa | 0 mm | - | 207 W/m² | - |
| 1788038826 | 24.44° C | 47% | 1024.2 hPa | 0 mm | - | 222 W/m² | - |
| 1788038521 | 23.89° C | 50% | 1024.2 hPa | 0 mm | - | 236 W/m² | - |
| 1788038220 | 24.44° C | 48% | 1024.4 hPa | 0 mm | - | 250 W/m² | - |
| 1788037915 | 25° C | 48% | 1024.4 hPa | 0 mm | - | 264 W/m² | - |
| 1788037610 | 25° C | 49% | 1024.5 hPa | 0 mm | - | 281 W/m² | - |
| 1788037305 | 25.56° C | 48% | 1024.6 hPa | 0 mm | - | 296 W/m² | - |
| 1788037004 | 25° C | 49% | 1024.5 hPa | 0 mm | - | 310 W/m² | - |
| 1788036701 | 26.11° C | 47% | 1024.4 hPa | 0 mm | - | 324 W/m² | - |
| 1788036396 | 25.56° C | 49% | 1024.5 hPa | 0 mm | - | 337 W/m² | - |
| 1788036091 | 25° C | 47% | 1024.4 hPa | 0 mm | - | 351 W/m² | - |
| 1788035791 | 25° C | 49% | 1024.6 hPa | 0 mm | - | 365 W/m² | - |
| 1788035486 | 25° C | 50% | 1024.3 hPa | 0 mm | - | 379 W/m² | - |
| 1788035181 | 25° C | 50% | 1024.5 hPa | 0 mm | - | 393 W/m² | - |
| 1788034877 | 25° C | 52% | 1024.6 hPa | 0 mm | - | 406 W/m² | - |
| 1788034572 | 25° C | 50% | 1024.4 hPa | 0 mm | - | 420 W/m² | - |
| 1788034269 | 25.56° C | 48% | 1024.5 hPa | 0 mm | - | 433 W/m² | - |
| 1788033969 | 26.11° C | 48% | 1024.5 hPa | 0 mm | - | 444 W/m² | - |
| 1788033664 | 25° C | 49% | 1024.7 hPa | 0 mm | - | 457 W/m² | - |
| 1788033362 | 25.56° C | 46% | 1024.6 hPa | 0 mm | - | 468 W/m² | - |
| 1788033057 | 26.67° C | 41% | 1024.5 hPa | 0 mm | - | 481 W/m² | - |
| 1788032752 | 26.67° C | 40% | 1024.6 hPa | 0 mm | - | 493 W/m² | - |
| 1788032447 | 26.11° C | 41% | 1024.5 hPa | 0 mm | - | 506 W/m² | - |
| 1788032143 | 25° C | 42% | 1024.5 hPa | 0 mm | - | 516 W/m² | - |
* Rain latest hour (hover to see other rain measurements)
** Current wind speed in m/s (hover to see current wind gust speed)